createdAt,value
2018-03-17T00:01:42.252Z,60.90
2018-03-17T00:04:08.494Z,61.26
2018-03-17T00:06:35.161Z,61.50
2018-03-17T00:09:01.400Z,61.40
2018-03-17T00:11:27.828Z,61.58
2018-03-17T00:13:54.063Z,61.15
2018-03-17T00:16:20.495Z,60.88
2018-03-17T00:18:46.756Z,60.72
2018-03-17T00:21:12.996Z,60.04
2018-03-17T00:23:39.256Z,59.77
2018-03-17T00:26:05.505Z,59.75
2018-03-17T00:28:32.037Z,59.58
2018-03-17T00:30:58.312Z,59.41
2018-03-17T00:33:24.692Z,59.79
2018-03-17T00:35:50.925Z,59.79
2018-03-17T00:38:17.212Z,59.73
2018-03-17T00:40:43.605Z,59.67
2018-03-17T00:43:10.234Z,59.59
2018-03-17T00:45:36.632Z,59.89
2018-03-17T00:48:02.900Z,60.22
2018-03-17T00:50:30.105Z,60.14
2018-03-17T00:52:56.566Z,60.13
2018-03-17T00:55:22.864Z,59.71
2018-03-17T00:57:49.328Z,59.45
2018-03-17T01:00:15.589Z,59.37
2018-03-17T01:02:42.102Z,59.59
2018-03-17T01:05:08.458Z,59.58
2018-03-17T01:07:34.832Z,59.51
2018-03-17T01:10:01.105Z,59.75
2018-03-17T01:12:27.340Z,59.75
2018-03-17T01:14:53.930Z,59.97
2018-03-17T01:17:20.412Z,60.09
2018-03-17T01:19:46.855Z,60.05
2018-03-17T01:22:13.447Z,59.73
2018-03-17T01:24:39.888Z,59.58
2018-03-17T01:27:06.129Z,59.81
2018-03-17T01:29:32.668Z,59.79
2018-03-17T01:31:58.932Z,59.55
2018-03-17T01:34:26.545Z,59.56
2018-03-17T01:36:53.142Z,59.73
2018-03-17T01:39:19.656Z,59.84
2018-03-17T01:41:46.083Z,59.82
2018-03-17T01:44:12.611Z,59.84
2018-03-17T01:46:38.986Z,59.89
2018-03-17T01:49:05.385Z,59.67
2018-03-17T01:51:31.819Z,60.03
2018-03-17T01:54:10.075Z,59.86
2018-03-17T01:56:36.934Z,60.09
2018-03-17T01:59:03.327Z,59.94
2018-03-17T02:01:29.600Z,59.74
2018-03-17T02:03:56.059Z,60.25
2018-03-17T02:06:22.328Z,60.24
2018-03-17T02:08:48.785Z,60.08
2018-03-17T02:11:15.052Z,60.00
2018-03-17T02:13:41.284Z,59.93
2018-03-17T02:16:07.916Z,60.14
2018-03-17T02:18:34.160Z,60.03
2018-03-17T02:21:00.584Z,60.19
2018-03-17T02:23:26.965Z,60.15
2018-03-17T02:25:53.224Z,60.06
2018-03-17T02:28:19.549Z,60.00
2018-03-17T02:30:45.792Z,60.04
2018-03-17T02:33:12.212Z,60.10
2018-03-17T02:35:38.476Z,60.26
2018-03-17T02:38:04.749Z,60.08
2018-03-17T02:40:31.004Z,60.31
2018-03-17T02:42:57.272Z,60.25
2018-03-17T02:45:23.693Z,60.19
2018-03-17T02:47:52.167Z,60.10
2018-03-17T02:50:18.516Z,60.20
2018-03-17T02:52:44.995Z,60.06
2018-03-17T02:55:11.397Z,60.03
2018-03-17T02:57:37.650Z,60.06
2018-03-17T03:00:03.961Z,60.07
2018-03-17T03:02:30.207Z,60.29
2018-03-17T03:04:56.815Z,60.31
2018-03-17T03:07:23.999Z,60.23
2018-03-17T03:09:50.552Z,60.47
2018-03-17T03:12:16.937Z,60.39
2018-03-17T03:14:43.284Z,60.52
2018-03-17T03:17:09.804Z,60.42
2018-03-17T03:19:36.100Z,60.25
2018-03-17T03:22:02.346Z,60.28
2018-03-17T03:24:28.619Z,60.27
2018-03-17T03:26:55.044Z,60.60
2018-03-17T03:29:21.289Z,60.73
2018-03-17T03:31:47.644Z,60.52
2018-03-17T03:34:13.877Z,60.70
2018-03-17T03:36:40.265Z,60.62
2018-03-17T03:39:06.749Z,60.28
2018-03-17T03:41:33.009Z,60.54
2018-03-17T03:43:59.252Z,60.59
2018-03-17T03:46:25.480Z,60.00
2018-03-17T03:48:52.101Z,59.78
2018-03-17T03:51:18.460Z,60.08
2018-03-17T03:53:45.009Z,60.33
2018-03-17T03:56:11.493Z,60.41
2018-03-17T03:58:37.761Z,60.52
2018-03-17T04:01:04.328Z,60.65
2018-03-17T04:03:30.591Z,60.49
2018-03-17T04:05:56.824Z,60.92
2018-03-17T04:08:23.068Z,61.16
2018-03-17T04:10:49.292Z,60.57
2018-03-17T04:13:15.699Z,60.67
2018-03-17T04:15:41.964Z,60.39
2018-03-17T04:18:08.208Z,60.54
2018-03-17T04:20:34.535Z,60.25
2018-03-17T04:23:00.826Z,60.33
2018-03-17T04:25:27.196Z,60.44
2018-03-17T04:27:53.432Z,60.48
2018-03-17T04:30:20.020Z,60.30
2018-03-17T04:32:46.367Z,60.29
2018-03-17T04:35:12.713Z,60.21
2018-03-17T04:37:38.992Z,60.29
2018-03-17T04:40:05.392Z,59.87
2018-03-17T04:42:31.659Z,59.84
2018-03-17T04:44:57.924Z,59.90
2018-03-17T04:47:24.320Z,59.68
2018-03-17T04:49:50.580Z,59.40
2018-03-17T04:52:17.182Z,59.19
2018-03-17T04:54:43.440Z,59.35
2018-03-17T04:57:09.953Z,59.26
2018-03-17T04:59:36.192Z,59.29
2018-03-17T05:02:02.624Z,59.25
2018-03-17T05:04:28.977Z,58.97
2018-03-17T05:06:55.219Z,58.98
2018-03-17T05:09:21.599Z,58.69
2018-03-17T05:11:47.844Z,58.97
2018-03-17T05:14:14.561Z,59.03
2018-03-17T05:16:40.796Z,58.82
2018-03-17T05:19:07.333Z,58.87
2018-03-17T05:21:33.631Z,59.09
2018-03-17T05:23:59.945Z,59.39
2018-03-17T05:26:26.224Z,59.32
2018-03-17T05:28:52.620Z,59.20
2018-03-17T05:31:18.992Z,58.98
2018-03-17T05:33:45.268Z,59.22
2018-03-17T05:36:11.992Z,59.35
2018-03-17T05:38:38.410Z,59.51
2018-03-17T05:41:04.717Z,59.67
2018-03-17T05:43:31.013Z,59.82
2018-03-17T05:45:57.332Z,59.31
2018-03-17T05:48:23.724Z,59.59
2018-03-17T05:50:50.176Z,59.57
2018-03-17T05:53:16.476Z,59.27
2018-03-17T05:55:42.711Z,59.08
2018-03-17T05:58:09.068Z,58.98
2018-03-17T06:00:35.324Z,58.47
2018-03-17T06:03:01.608Z,58.83
2018-03-17T06:05:27.873Z,58.71
2018-03-17T06:07:54.105Z,58.60
2018-03-17T06:10:20.333Z,58.41
2018-03-17T06:12:46.650Z,58.16
2018-03-17T06:15:12.881Z,57.96
2018-03-17T06:17:39.151Z,58.03
2018-03-17T06:20:05.532Z,58.01
2018-03-17T06:22:31.897Z,58.19
2018-03-17T06:24:58.337Z,57.99
2018-03-17T06:27:24.576Z,58.05
2018-03-17T06:29:51.012Z,58.44
2018-03-17T06:32:17.235Z,58.28
2018-03-17T06:34:43.668Z,58.32
2018-03-17T06:37:09.954Z,58.48
2018-03-17T06:39:36.200Z,58.26
2018-03-17T06:42:02.488Z,58.12
2018-03-17T06:44:28.740Z,57.93
2018-03-17T06:46:55.050Z,58.26
2018-03-17T06:49:21.327Z,58.36
2018-03-17T06:51:47.660Z,57.84
2018-03-17T06:54:13.953Z,57.71
2018-03-17T06:56:40.273Z,57.40
2018-03-17T06:59:06.523Z,57.35
2018-03-17T07:01:33.338Z,57.46
2018-03-17T07:03:59.795Z,57.45
2018-03-17T07:06:26.090Z,57.87
2018-03-17T07:08:52.500Z,57.80
2018-03-17T07:11:18.860Z,57.74
2018-03-17T07:13:45.134Z,57.27
2018-03-17T07:16:11.462Z,56.51
2018-03-17T07:18:37.782Z,56.77
2018-03-17T07:21:04.016Z,56.38
2018-03-17T07:23:30.244Z,57.37
2018-03-17T07:25:56.492Z,56.67
2018-03-17T07:28:22.730Z,56.59
2018-03-17T07:30:49.032Z,55.80
2018-03-17T07:33:15.307Z,56.22
2018-03-17T07:35:41.536Z,55.83
2018-03-17T07:38:07.793Z,55.51
2018-03-17T07:40:34.032Z,55.50
2018-03-17T07:43:00.292Z,55.23
2018-03-17T07:45:26.553Z,55.47
2018-03-17T07:47:52.797Z,55.50
2018-03-17T07:50:19.040Z,54.78
2018-03-17T07:52:45.259Z,54.93
2018-03-17T07:55:11.529Z,55.91
2018-03-17T07:57:37.764Z,56.19
2018-03-17T08:00:04.044Z,55.42
2018-03-17T08:02:30.301Z,54.66
2018-03-17T08:04:56.533Z,53.80
2018-03-17T08:07:22.793Z,54.04
2018-03-17T08:09:49.025Z,54.01
2018-03-17T08:12:15.248Z,53.89
2018-03-17T08:14:41.500Z,54.13
2018-03-17T08:17:07.733Z,54.08
2018-03-17T08:19:33.996Z,53.68
2018-03-17T08:22:00.273Z,53.60
2018-03-17T08:24:26.504Z,53.91
2018-03-17T08:26:52.755Z,53.47
2018-03-17T08:29:19.004Z,53.13
2018-03-17T08:31:45.273Z,53.38
2018-03-17T08:34:11.532Z,53.68
2018-03-17T08:36:37.792Z,53.39
2018-03-17T08:39:04.084Z,53.20
2018-03-17T08:41:30.341Z,52.75
2018-03-17T08:43:56.612Z,52.79
2018-03-17T08:46:22.864Z,52.63
2018-03-17T08:48:49.585Z,52.62
2018-03-17T08:51:16.168Z,53.25
2018-03-17T08:53:42.412Z,53.37
2018-03-17T08:56:08.681Z,53.05
2018-03-17T08:58:34.928Z,52.87
2018-03-17T09:01:01.169Z,52.54
2018-03-17T09:03:27.484Z,51.79
2018-03-17T09:05:53.747Z,52.38
2018-03-17T09:08:20.012Z,52.57
2018-03-17T09:10:46.325Z,52.72
2018-03-17T09:13:12.523Z,52.12
2018-03-17T09:15:38.789Z,51.82
2018-03-17T09:18:05.054Z,52.06
2018-03-17T09:20:31.293Z,52.09
2018-03-17T09:22:57.559Z,52.01
2018-03-17T09:25:23.816Z,51.94
2018-03-17T09:27:50.092Z,52.23
2018-03-17T09:30:16.380Z,52.02
2018-03-17T09:32:42.657Z,52.49
2018-03-17T09:35:08.915Z,51.92
2018-03-17T09:37:35.432Z,51.69
2018-03-17T09:40:02.059Z,52.36
2018-03-17T09:42:28.456Z,51.79
2018-03-17T09:44:54.988Z,51.61
2018-03-17T09:47:21.256Z,51.61
2018-03-17T09:49:47.523Z,51.26
2018-03-17T09:52:14.217Z,51.68
2018-03-17T09:54:40.692Z,51.47
2018-03-17T09:57:07.022Z,51.49
2018-03-17T09:59:33.308Z,50.77
2018-03-17T10:01:59.692Z,51.20
2018-03-17T10:04:25.949Z,51.17
2018-03-17T10:06:52.440Z,51.01
2018-03-17T10:09:18.709Z,50.43
2018-03-17T10:11:44.956Z,50.27
2018-03-17T10:14:11.591Z,50.11
2018-03-17T10:16:37.858Z,49.51
2018-03-17T10:19:04.125Z,50.05
2018-03-17T10:21:30.454Z,50.18
2018-03-17T10:23:56.755Z,49.87
2018-03-17T10:26:23.219Z,50.16
2018-03-17T10:28:49.480Z,50.53
2018-03-17T10:31:15.919Z,49.84
2018-03-17T10:33:42.159Z,49.82
2018-03-17T10:36:08.740Z,50.17
2018-03-17T10:38:35.152Z,49.44
2018-03-17T10:41:01.388Z,50.11
2018-03-17T10:43:27.979Z,49.75
2018-03-17T10:45:54.242Z,49.88
2018-03-17T10:48:20.657Z,50.27
2018-03-17T10:50:46.927Z,49.95
2018-03-17T10:53:13.167Z,49.76
2018-03-17T10:55:39.453Z,49.42
2018-03-17T10:58:06.123Z,49.35
2018-03-17T11:00:32.432Z,49.32
2018-03-17T11:02:58.702Z,49.21
2018-03-17T11:05:24.980Z,48.83
2018-03-17T11:07:51.676Z,48.63
2018-03-17T11:10:17.938Z,49.16
2018-03-17T11:12:45.353Z,49.05
2018-03-17T11:15:11.848Z,48.43
2018-03-17T11:17:38.136Z,48.14
2018-03-17T11:20:04.707Z,48.27
2018-03-17T11:22:31.400Z,48.49
2018-03-17T11:24:58.041Z,48.83
2018-03-17T11:27:24.606Z,48.43
2018-03-17T11:29:50.884Z,48.53
2018-03-17T11:32:17.336Z,48.13
2018-03-17T11:34:43.796Z,48.17
2018-03-17T11:37:10.061Z,48.13
2018-03-17T11:39:36.641Z,47.63
2018-03-17T11:42:02.908Z,47.69
2018-03-17T11:44:29.169Z,47.45
2018-03-17T11:46:55.444Z,46.78
2018-03-17T11:49:22.012Z,46.79
2018-03-17T11:51:48.244Z,46.58
2018-03-17T11:54:14.600Z,46.27
2018-03-17T11:56:40.985Z,46.02
2018-03-17T11:59:07.304Z,46.28
2018-03-17T12:01:33.836Z,46.17
2018-03-17T12:04:00.093Z,46.03
2018-03-17T12:06:26.357Z,46.67
2018-03-17T12:08:52.620Z,46.35
2018-03-17T12:11:18.860Z,46.62
2018-03-17T12:13:45.128Z,46.90
2018-03-17T12:16:11.368Z,46.94
2018-03-17T12:18:37.604Z,47.24
2018-03-17T12:21:03.901Z,47.55
2018-03-17T12:23:30.145Z,48.04
2018-03-17T12:25:56.417Z,48.15
2018-03-17T12:28:22.715Z,48.13
2018-03-17T12:30:48.933Z,48.24
2018-03-17T12:33:15.192Z,48.47
2018-03-17T12:35:41.432Z,48.07
2018-03-17T12:38:07.712Z,48.48
2018-03-17T12:40:33.944Z,48.14
2018-03-17T12:43:00.176Z,48.62
2018-03-17T12:45:26.437Z,48.16
2018-03-17T12:47:53.821Z,48.67
2018-03-17T12:50:23.005Z,48.75
2018-03-17T12:52:49.270Z,48.36
2018-03-17T12:55:15.512Z,48.00
2018-03-17T12:57:41.776Z,48.21
2018-03-17T13:00:08.043Z,48.47
2018-03-17T13:02:34.307Z,48.35
2018-03-17T13:05:00.587Z,48.78
2018-03-17T13:07:26.832Z,49.14
2018-03-17T13:09:53.072Z,49.36
2018-03-17T13:12:19.344Z,49.61
2018-03-17T13:14:45.588Z,49.58
2018-03-17T13:17:11.832Z,49.94
2018-03-17T13:19:38.105Z,50.35
2018-03-17T13:22:04.347Z,50.18
2018-03-17T13:24:30.631Z,50.18
2018-03-17T13:27:08.953Z,50.09
2018-03-17T13:29:35.223Z,50.67
2018-03-17T13:32:01.460Z,50.36
2018-03-17T13:34:27.732Z,50.30
2018-03-17T13:37:06.132Z,50.43
2018-03-17T13:39:32.374Z,50.32
2018-03-17T13:41:58.644Z,49.90
2018-03-17T13:44:24.921Z,49.89
2018-03-17T13:46:51.201Z,50.11
2018-03-17T13:49:17.452Z,50.51
2018-03-17T13:51:43.745Z,50.06
2018-03-17T13:54:09.999Z,50.11
2018-03-17T13:56:36.256Z,50.28
2018-03-17T13:59:02.536Z,50.38
2018-03-17T14:01:28.786Z,50.68
2018-03-17T14:03:55.061Z,50.32
2018-03-17T14:06:21.365Z,50.54
2018-03-17T14:08:47.664Z,50.78
2018-03-17T14:11:13.920Z,50.68
2018-03-17T14:13:40.185Z,51.19
2018-03-17T14:16:06.432Z,51.03
2018-03-17T14:18:32.677Z,50.51
2018-03-17T14:20:58.928Z,50.99
2018-03-17T14:23:25.157Z,50.99
2018-03-17T14:25:51.400Z,50.64
2018-03-17T14:28:17.647Z,51.18
2018-03-17T14:30:43.914Z,51.25
2018-03-17T14:33:10.140Z,51.68
2018-03-17T14:35:36.372Z,51.16
2018-03-17T14:38:02.650Z,51.05
2018-03-17T14:40:28.887Z,50.53
2018-03-17T14:42:55.143Z,50.72
2018-03-17T14:45:21.368Z,50.83
2018-03-17T14:47:49.208Z,50.88
2018-03-17T14:50:16.171Z,51.02
2018-03-17T14:52:42.438Z,50.96
2018-03-17T14:55:08.763Z,50.72
2018-03-17T14:57:35.004Z,50.91
2018-03-17T15:00:01.289Z,51.30
2018-03-17T15:02:27.541Z,51.13
2018-03-17T15:04:53.813Z,51.79
2018-03-17T15:07:20.060Z,51.55
2018-03-17T15:09:46.357Z,51.63
2018-03-17T15:12:12.599Z,51.67
2018-03-17T15:14:39.627Z,51.73
2018-03-17T15:17:05.860Z,52.14
2018-03-17T15:19:32.120Z,52.17
2018-03-17T15:21:58.377Z,52.43
2018-03-17T15:24:24.633Z,52.25
2018-03-17T15:26:50.939Z,52.39
2018-03-17T15:29:17.173Z,52.33
2018-03-17T15:31:43.424Z,52.53
2018-03-17T15:34:09.655Z,52.26
2018-03-17T15:36:35.957Z,52.49
2018-03-17T15:39:02.287Z,52.67
2018-03-17T15:41:28.580Z,52.66
2018-03-17T15:43:54.815Z,52.23
2018-03-17T15:46:21.046Z,52.36
2018-03-17T15:48:47.343Z,52.84
2018-03-17T15:51:13.576Z,52.61
2018-03-17T15:53:39.838Z,52.99
2018-03-17T15:56:06.112Z,52.97
2018-03-17T15:58:32.392Z,53.18
2018-03-17T16:00:58.700Z,53.45
2018-03-17T16:03:24.933Z,53.53
2018-03-17T16:05:51.228Z,53.45
2018-03-17T16:08:18.171Z,53.40
2018-03-17T16:10:44.447Z,53.45
2018-03-17T16:13:10.684Z,53.76
2018-03-17T16:15:36.936Z,53.81
2018-03-17T16:18:03.198Z,53.95
2018-03-17T16:20:29.494Z,54.08
2018-03-17T16:22:55.841Z,54.34
2018-03-17T16:25:22.076Z,54.32
2018-03-17T16:27:48.409Z,54.50
2018-03-17T16:30:14.632Z,54.66
2018-03-17T16:32:40.884Z,55.13
2018-03-17T16:35:07.117Z,54.89
2018-03-17T16:37:33.532Z,55.20
2018-03-17T16:39:59.804Z,55.19
2018-03-17T16:42:26.061Z,54.93
2018-03-17T16:44:52.550Z,55.19
2018-03-17T16:47:21.740Z,54.92
2018-03-17T16:49:48.042Z,54.86
2018-03-17T16:52:14.276Z,55.20
2018-03-17T16:54:40.567Z,55.50
2018-03-17T16:57:06.783Z,55.50
2018-03-17T16:59:33.065Z,55.40
2018-03-17T17:01:59.663Z,55.72
2018-03-17T17:04:25.951Z,55.83
2018-03-17T17:06:52.192Z,55.72
2018-03-17T17:09:18.429Z,56.00
2018-03-17T17:11:44.716Z,56.11
2018-03-17T17:14:10.956Z,55.84
2018-03-17T17:16:37.208Z,56.01
2018-03-17T17:19:03.476Z,55.92
2018-03-17T17:21:29.737Z,55.91
2018-03-17T17:23:56.024Z,55.98
2018-03-17T17:26:22.248Z,55.87
2018-03-17T17:28:48.503Z,56.04
2018-03-17T17:31:14.732Z,55.67
2018-03-17T17:33:40.980Z,55.99
2018-03-17T17:36:07.228Z,56.08
2018-03-17T17:38:33.464Z,56.59
2018-03-17T17:40:59.692Z,56.66
2018-03-17T17:43:25.953Z,56.28
2018-03-17T17:45:52.306Z,56.18
2018-03-17T17:48:18.496Z,56.11
2018-03-17T17:50:44.741Z,55.98
2018-03-17T17:53:10.988Z,56.25
2018-03-17T17:55:37.256Z,56.43
2018-03-17T17:58:03.549Z,56.55
2018-03-17T18:00:29.877Z,56.35
2018-03-17T18:02:56.470Z,56.23
2018-03-17T18:05:22.773Z,55.76
2018-03-17T18:07:49.021Z,56.00
2018-03-17T18:10:15.267Z,56.08
2018-03-17T18:12:41.507Z,55.95
2018-03-17T18:15:07.835Z,56.09
2018-03-17T18:17:34.100Z,56.08
2018-03-17T18:20:00.492Z,55.73
2018-03-17T18:22:26.738Z,55.76
2018-03-17T18:24:52.960Z,56.01
2018-03-17T18:27:19.322Z,55.66
2018-03-17T18:29:45.584Z,56.06
2018-03-17T18:32:11.855Z,55.91
2018-03-17T18:34:38.432Z,56.16
2018-03-17T18:37:04.760Z,56.01
2018-03-17T18:39:31.000Z,55.94
2018-03-17T18:41:57.220Z,56.00
2018-03-17T18:44:23.470Z,56.31
2018-03-17T18:46:49.697Z,56.36
2018-03-17T18:49:15.959Z,56.80
2018-03-17T18:51:42.192Z,56.56
2018-03-17T18:54:08.497Z,56.66
2018-03-17T18:56:34.746Z,56.72
2018-03-17T18:59:00.992Z,56.68
2018-03-17T19:01:27.245Z,56.35
2018-03-17T19:03:53.511Z,56.47
2018-03-17T19:06:19.796Z,56.62
2018-03-17T19:08:46.028Z,56.45
2018-03-17T19:11:12.267Z,56.40
2018-03-17T19:13:38.504Z,56.73
2018-03-17T19:16:04.756Z,57.03
2018-03-17T19:18:31.012Z,56.41
2018-03-17T19:20:57.237Z,56.19
2018-03-17T19:23:23.544Z,56.24
2018-03-17T19:25:49.769Z,56.20
2018-03-17T19:28:16.027Z,56.11
2018-03-17T19:30:42.253Z,56.27
2018-03-17T19:33:08.503Z,56.17
2018-03-17T19:35:34.734Z,56.39
2018-03-17T19:38:00.988Z,56.34
2018-03-17T19:40:27.255Z,56.42
2018-03-17T19:42:53.544Z,56.71
2018-03-17T19:45:19.795Z,56.69
2018-03-17T19:47:46.048Z,56.47
2018-03-17T19:50:12.323Z,56.53
2018-03-17T19:52:38.716Z,56.27
2018-03-17T19:55:05.557Z,56.63
2018-03-17T19:57:31.787Z,56.60
2018-03-17T19:59:58.031Z,56.21
2018-03-17T20:02:25.839Z,56.19
2018-03-17T20:04:52.172Z,55.98
2018-03-17T20:07:18.401Z,55.69
2018-03-17T20:09:44.669Z,55.65
2018-03-17T20:12:11.104Z,55.59
2018-03-17T20:14:37.369Z,55.68
2018-03-17T20:17:03.647Z,55.55
2018-03-17T20:19:29.967Z,55.66
2018-03-17T20:21:56.251Z,55.42
2018-03-17T20:24:22.472Z,55.59
2018-03-17T20:26:48.740Z,55.52
2018-03-17T20:29:14.993Z,55.43
2018-03-17T20:31:41.244Z,55.18
2018-03-17T20:34:07.599Z,54.99
2018-03-17T20:36:33.896Z,55.16
2018-03-17T20:39:00.186Z,55.03
2018-03-17T20:41:26.420Z,55.15
2018-03-17T20:43:52.756Z,55.04
2018-03-17T20:46:18.997Z,54.93
2018-03-17T20:48:46.594Z,55.01
2018-03-17T20:51:12.848Z,55.05
2018-03-17T20:53:39.076Z,54.87
2018-03-17T20:56:05.420Z,54.83
2018-03-17T20:58:31.732Z,54.81
2018-03-17T21:00:58.028Z,56.84
2018-03-17T21:03:24.268Z,56.62
2018-03-17T21:05:50.543Z,55.22
2018-03-17T21:08:16.773Z,55.12
2018-03-17T21:10:43.038Z,55.13
2018-03-17T21:13:09.658Z,55.05
2018-03-17T21:15:35.908Z,55.10
2018-03-17T21:18:02.298Z,55.18
2018-03-17T21:20:28.576Z,55.30
2018-03-17T21:22:54.905Z,55.60
2018-03-17T21:25:21.185Z,55.54
2018-03-17T21:27:47.599Z,55.21
2018-03-17T21:30:13.870Z,55.24
2018-03-17T21:32:40.174Z,55.19
2018-03-17T21:35:06.611Z,55.22
2018-03-17T21:37:32.848Z,55.33
2018-03-17T21:39:59.207Z,56.05
2018-03-17T21:42:25.460Z,56.31
2018-03-17T21:44:51.836Z,56.38
2018-03-17T21:47:18.152Z,56.08
2018-03-17T21:49:44.432Z,56.10
2018-03-17T21:52:10.660Z,55.85
2018-03-17T21:54:36.908Z,56.08
2018-03-17T21:57:03.156Z,56.13
2018-03-17T21:59:29.388Z,56.10
2018-03-17T22:01:55.688Z,56.18
2018-03-17T22:04:21.919Z,56.61
2018-03-17T22:06:48.184Z,55.90
2018-03-17T22:09:14.445Z,56.43
2018-03-17T22:11:40.712Z,56.28
2018-03-17T22:14:06.972Z,56.33
2018-03-17T22:16:33.223Z,56.49
2018-03-17T22:18:59.514Z,56.28
2018-03-17T22:21:25.847Z,56.18
2018-03-17T22:23:52.112Z,56.06
2018-03-17T22:26:18.372Z,55.67
2018-03-17T22:28:44.648Z,55.50
2018-03-17T22:31:11.153Z,55.46
2018-03-17T22:33:37.408Z,55.67
2018-03-17T22:36:03.849Z,55.37
2018-03-17T22:38:30.124Z,55.36
2018-03-17T22:40:56.396Z,55.58
2018-03-17T22:43:22.963Z,55.49
2018-03-17T22:45:49.202Z,55.70
2018-03-17T22:48:15.581Z,55.74
2018-03-17T22:50:41.900Z,55.37
2018-03-17T22:53:08.135Z,55.41
2018-03-17T22:55:34.764Z,54.98
2018-03-17T22:58:00.999Z,55.13
2018-03-17T23:00:27.344Z,54.86
2018-03-17T23:02:53.706Z,54.82
2018-03-17T23:05:19.939Z,54.72
2018-03-17T23:07:46.613Z,54.85
2018-03-17T23:10:12.851Z,54.83
2018-03-17T23:12:39.187Z,55.26
2018-03-17T23:15:05.595Z,54.96
2018-03-17T23:17:31.868Z,54.88
2018-03-17T23:19:58.512Z,55.15
2018-03-17T23:22:24.817Z,54.98
2018-03-17T23:24:51.118Z,54.71
2018-03-17T23:27:17.569Z,54.88
2018-03-17T23:29:43.860Z,54.66
2018-03-17T23:32:10.524Z,54.54
2018-03-17T23:34:36.783Z,54.25
2018-03-17T23:37:03.128Z,54.19
2018-03-17T23:39:29.560Z,54.35
2018-03-17T23:41:55.819Z,54.05
2018-03-17T23:44:22.463Z,54.04
2018-03-17T23:46:48.792Z,53.74
2018-03-17T23:49:15.122Z,53.37
2018-03-17T23:51:41.580Z,53.26
2018-03-17T23:54:07.840Z,53.23
2018-03-17T23:56:34.519Z,53.04
2018-03-17T23:59:00.802Z,52.72
